Date,TemperatureHighF,TemperatureAvgF,TemperatureLowF,DewpointHighF,DewpointAvgF,DewpointLowF,HumidityHigh,HumidityAvg,HumidityLow,PressureMaxIn,PressureMinIn,WindSpeedMaxMPH,WindSpeedAvgMPH,GustSpeedMaxMPH,PrecipitationSumIn
2013-1-1,20,17,13,18,15,11,93,92,90,0.00,40.00,24,11,29,0.00
2013-1-2,20,14,12,18,12,10,92,89,80,0.00,40.00,23,3,25,0.00
2013-1-3,33,22,15,15,11,9,81,62,43,0.00,40.00,26,23,29,0.00
2013-1-4,31,30,29,25,24,23,84,79,73,0.00,40.00,26,22,34,0.00
2013-1-5,36,29,23,26,22,18,96,77,54,0.00,40.00,24,13,30,0.00
2013-1-6,32,28,25,28,22,17,100,78,59,0.00,40.00,23,16,32,0.00
2013-1-7,35,30,24,30,25,20,87,80,66,0.00,40.00,27,16,35,0.00
2013-1-8,40,32,29,30,25,20,91,75,61,0.00,40.00,32,24,42,0.00
2013-1-9,45,40,37,30,26,23,69,58,46,0.00,40.00,37,21,45,0.00
2013-1-10,40,20,5,31,17,1,100,89,51,0.00,40.00,17,9,28,0.00
2013-1-11,5,3,1,2,-1,-3,85,83,82,0.00,40.00,11,1,32,0.00
2013-1-12,11,5,2,8,2,-2,88,84,82,0.00,40.00,0,0,0,0.00
2013-1-13,11,7,3,8,4,-1,88,85,83,0.00,40.00,0,0,0,0.00
2013-1-14,15,9,4,13,6,0,91,87,83,0.00,40.00,29,8,39,0.00
2013-1-15,21,18,15,20,16,13,95,93,91,0.00,40.00,24,5,33,0.00
2013-1-16,37,35,32,25,23,20,64,61,57,0.00,40.00,30,26,40,0.00
2013-1-17,39,32,24,21,18,15,73,58,45,0.00,40.00,30,21,41,0.00
2013-1-18,44,36,30,19,16,14,62,45,32,0.00,40.00,35,22,45,0.00
2013-1-19,41,34,28,17,14,12,53,44,33,0.00,40.00,34,22,41,0.00
2013-1-20,36,30,19,21,19,16,96,66,48,0.00,40.00,24,14,28,0.00
2013-1-21,32,32,31,16,15,15,51,51,50,0.00,40.00,29,26,35,0.00
2013-1-25,41,37,28,36,33,23,100,83,71,0.00,40.00,16,7,21,0.00
2013-1-26,45,34,29,34,30,27,100,87,48,0.00,40.00,21,10,25,0.00
2013-1-27,29,24,19,29,21,15,100,88,70,0.00,40.00,21,7,28,0.00
2013-1-28,27,22,19,20,16,13,94,77,55,0.00,40.00,20,13,27,0.00
2013-1-29,22,16,7,20,14,3,95,91,84,0.00,40.00,27,12,35,0.00
2013-1-30,31,28,21,31,28,20,100,99,93,0.00,40.00,28,3,36,0.00
2013-1-31,36,34,33,33,31,29,100,88,80,0.00,40.00,32,22,43,0.00
2013-2-1,35,32,30,32,28,24,100,86,64,0.00,40.00,34,17,42,0.00
2013-2-2,38,32,29,26,24,23,82,72,59,0.00,40.00,33,24,40,0.00
2013-2-3,40,32,25,26,22,18,80,67,52,0.00,40.00,27,17,33,0.00
2013-2-4,38,33,31,30,27,24,86,76,70,0.00,40.00,30,19,37,0.00
2013-2-5,41,34,28,33,28,25,91,79,64,0.00,40.00,21,9,27,0.00
2013-2-6,33,30,24,29,24,17,93,79,65,0.00,40.00,31,17,40,0.00
2013-2-7,41,31,25,23,17,13,74,56,37,0.00,40.00,14,5,17,0.00
2013-2-8,33,27,23,26,22,19,91,81,63,0.00,40.00,17,12,19,0.00
2013-2-9,28,24,20,25,21,19,98,90,72,0.00,40.00,24,15,31,0.00
2013-2-10,25,20,14,24,19,12,96,93,90,0.00,40.00,17,6,22,0.00
2013-2-11,26,21,14,24,19,11,93,91,85,0.00,40.00,29,23,36,0.00
2013-2-12,32,29,25,28,25,22,92,87,80,0.00,40.00,34,28,43,0.00
2013-2-13,36,33,29,28,26,23,91,77,64,0.00,40.00,34,26,42,0.00
2013-2-14,31,26,18,27,22,16,96,84,67,0.00,40.00,29,18,38,0.00
2013-2-15,36,31,26,29,26,22,94,82,73,0.00,40.00,30,23,39,0.00
2013-2-16,46,36,29,32,27,24,100,73,50,0.00,40.00,24,16,32,0.00
2013-2-17,31,27,24,31,25,21,100,92,81,0.00,40.00,29,20,38,0.00
2013-2-18,32,26,22,25,19,11,97,75,49,0.00,40.00,20,8,26,0.00
2013-2-19,32,27,24,23,17,11,83,66,48,0.00,40.00,10,4,13,0.00
2013-2-20,29,24,17,25,20,13,98,85,68,0.00,40.00,17,11,22,0.00
2013-2-21,25,20,13,21,14,10,93,77,59,0.00,40.00,30,18,40,0.00
2013-2-22,34,28,20,24,20,16,92,72,56,0.00,40.00,35,23,45,0.00
2013-2-23,33,26,22,28,20,14,99,78,60,0.00,40.00,32,22,40,0.00
2013-2-24,30,23,16,20,17,13,90,78,62,0.00,40.00,32,23,42,0.00
2013-2-25,33,26,20,28,19,15,99,76,56,0.00,40.00,28,16,37,0.00
2013-2-26,29,25,23,21,18,16,92,77,61,0.00,40.00,27,20,34,0.00
2013-2-27,35,26,17,20,16,12,86,68,48,0.00,40.00,26,15,30,0.00
2013-2-28,35,29,23,32,24,16,100,79,64,0.00,40.00,27,16,34,0.00
2013-3-1,45,38,32,36,34,31,100,85,68,0.00,40.00,30,21,40,0.00
2013-3-2,50,41,33,33,31,27,89,68,47,0.00,40.00,22,10,29,0.00
2013-3-3,39,29,19,35,25,14,100,85,55,0.00,40.00,30,14,42,0.00
2013-3-4,21,17,13,17,13,9,94,85,64,0.00,40.00,11,5,15,0.00
2013-3-5,30,26,15,19,15,9,79,64,46,0.00,40.00,9,6,12,0.00
2013-3-6,41,32,26,35,25,17,100,74,53,0.00,40.00,18,6,30,0.00
2013-3-7,39,31,26,32,23,17,100,73,48,0.00,40.00,26,14,34,0.00
2013-3-8,39,30,21,22,18,14,78,62,37,0.00,40.00,20,8,24,0.00
2013-3-9,38,30,25,24,22,14,85,70,57,0.00,40.00,26,20,31,0.00
2013-3-10,41,32,25,32,23,20,100,71,45,0.00,40.00,31,25,40,0.00
2013-3-11,36,30,22,32,24,17,100,79,49,0.00,40.00,30,17,41,0.00
2013-3-12,46,33,19,35,26,16,97,75,57,0.00,40.00,28,12,35,0.00
2013-3-13,50,44,38,33,31,27,78,62,41,0.00,40.00,29,18,39,0.00
2013-3-14,57,48,41,33,30,27,71,51,38,0.00,40.00,23,11,29,0.00
2013-3-15,49,43,36,35,31,27,85,63,43,0.00,40.00,35,22,46,0.00
2013-3-16,45,38,33,32,28,23,88,70,46,0.00,40.00,20,13,29,0.00
2013-3-17,33,26,22,32,22,15,100,83,67,0.00,40.00,32,23,40,0.00
2013-3-18,31,24,21,24,18,12,98,76,48,0.00,40.00,27,20,37,0.00
2013-3-19,40,28,20,22,16,5,97,67,28,0.00,40.00,23,14,32,0.00
2013-3-20,49,40,30,35,24,5,100,57,30,0.00,40.00,33,19,43,0.00
2013-3-21,30,26,21,30,19,12,100,74,52,0.00,40.00,33,24,41,0.00
2013-3-22,22,19,15,19,17,12,96,90,75,0.00,40.00,19,11,26,0.00
2013-3-23,27,17,3,18,9,-1,95,74,43,0.00,40.00,17,6,21,0.00
2013-3-24,32,20,10,17,11,-1,94,70,26,0.00,40.00,13,6,17,0.00
2013-3-25,39,27,16,18,12,5,64,51,37,0.00,40.00,19,9,26,0.00
2013-3-26,47,36,28,26,23,17,77,60,41,0.00,40.00,16,7,24,0.00
2013-3-27,51,40,29,35,27,23,86,62,41,0.00,40.00,13,6,19,0.00
2013-3-28,53,43,33,40,34,30,100,74,43,0.00,40.00,19,8,26,0.00
2013-3-29,46,40,36,40,36,31,100,87,54,0.00,40.00,22,12,28,0.00
2013-3-30,50,42,35,36,31,-100,99,71,44,0.00,40.00,22,16,27,0.00
2013-3-31,50,43,37,32,29,26,77,59,44,0.00,40.00,26,13,34,0.00
2013-4-1,54,44,34,30,27,25,72,53,35,0.00,40.00,13,8,18,0.00
2013-4-2,59,48,37,36,32,25,68,53,41,0.00,40.00,27,13,35,0.00
2013-4-3,53,45,41,37,35,30,82,68,49,0.00,40.00,31,18,39,0.00
2013-4-4,59,48,37,45,35,29,99,62,34,0.00,40.00,26,7,32,0.00
2013-4-5,51,44,38,44,36,29,100,78,44,0.00,40.00,34,23,46,0.00
2013-4-6,45,39,36,43,35,31,100,85,65,0.00,40.00,24,12,29,0.00
2013-4-7,44,35,26,40,34,26,100,94,83,0.00,40.00,24,8,29,0.00
2013-4-8,26,18,14,26,17,12,100,94,89,0.00,40.00,17,5,25,0.00
2013-4-9,36,23,14,30,18,11,94,81,53,0.00,40.00,11,3,14,0.00
2013-4-10,50,38,28,41,31,23,100,76,57,0.00,40.00,31,21,38,0.00
2013-4-11,46,38,31,38,28,21,99,69,42,0.00,40.00,35,25,44,0.00
2013-4-12,49,37,29,30,26,21,100,69,32,0.00,40.00,17,10,27,0.00
2013-4-13,43,34,25,35,26,11,100,73,35,0.00,40.00,29,22,43,0.00
2013-4-14,26,24,17,26,23,15,99,96,90,0.00,40.00,24,12,32,0.00
2013-4-15,23,18,15,17,15,13,94,88,75,0.00,40.00,17,12,27,0.00
2013-4-16,24,19,15,19,16,13,95,89,70,0.00,40.00,18,11,24,0.00
2013-4-17,37,24,16,20,15,12,94,73,37,0.00,40.00,12,6,17,0.00
2013-4-18,41,31,21,25,19,11,71,60,50,0.00,40.00,29,20,39,0.00
2013-4-19,44,37,32,38,31,24,94,77,68,0.00,40.00,31,21,40,0.00
2013-4-20,45,40,36,38,33,28,100,78,53,0.00,40.00,34,25,44,0.00
2013-4-21,38,24,17,29,22,16,100,93,66,0.00,40.00,24,12,31,0.00
2013-4-22,34,23,17,21,17,14,94,80,46,0.00,40.00,16,8,23,0.00
2013-4-23,38,29,18,25,19,15,89,69,44,0.00,40.00,22,16,27,0.00
2013-4-24,49,37,25,28,24,21,91,62,36,0.00,40.00,29,18,39,0.00
2013-4-25,55,45,33,29,25,21,70,47,32,0.00,40.00,32,20,44,0.00
2013-4-26,62,50,39,33,31,29,69,49,31,0.00,40.00,29,19,41,0.00
2013-4-27,63,53,45,33,30,24,64,44,24,0.00,40.00,37,22,47,0.00
2013-4-28,54,47,41,40,34,25,86,60,41,0.00,40.00,31,22,40,0.00
2013-4-29,47,40,33,37,28,19,94,63,33,0.00,40.00,34,23,45,0.00
2013-4-30,33,28,24,27,22,16,98,79,51,0.00,40.00,22,10,29,0.00
2013-5-1,41,31,23,30,23,19,99,74,41,0.00,40.00,19,12,31,0.00
2013-5-2,59,44,29,22,20,15,72,43,21,0.00,40.00,24,16,34,0.00
2013-5-3,50,44,37,41,30,20,100,62,38,0.00,40.00,19,10,24,0.00
2013-5-4,48,41,37,43,40,37,100,97,75,0.00,40.00,16,9,24,0.00
2013-5-5,59,48,37,41,37,32,100,72,38,0.00,40.00,12,8,19,0.00
2013-5-6,66,56,43,37,34,26,77,45,28,0.00,40.00,11,6,17,0.00
2013-5-7,62,56,47,39,35,28,54,46,40,0.00,40.00,18,11,29,0.00
2013-5-8,68,56,43,41,36,31,75,50,30,0.00,40.00,14,7,22,0.00
2013-5-9,72,59,49,43,39,35,68,48,30,0.00,40.00,19,7,29,0.00
2013-5-10,61,53,49,40,35,-100,65,53,37,0.00,40.00,18,10,26,0.00
2013-5-11,73,60,47,43,37,-100,65,45,27,0.00,40.00,21,10,29,0.00
2013-5-12,78,66,50,48,42,38,69,45,24,0.00,40.00,26,16,34,0.00
2013-5-13,79,64,48,51,46,29,87,57,18,0.00,40.00,37,17,47,0.00
2013-5-14,63,50,40,44,34,24,87,56,23,0.00,40.00,32,21,39,0.00
2013-5-15,65,51,39,42,34,30,78,53,33,0.00,40.00,21,11,27,0.00
2013-5-16,61,47,43,45,24,-100,89,73,52,0.00,40.00,18,9,24,0.00
2013-5-17,47,45,41,47,39,-100,100,93,76,0.00,40.00,11,6,16,0.00
2013-5-18,57,48,44,51,45,43,100,92,62,0.00,40.00,17,10,23,0.00
2013-5-19,49,45,41,48,44,41,100,99,88,0.00,40.00,19,12,27,0.00
2013-5-20,57,48,44,51,46,44,100,93,65,0.00,40.00,13,7,16,0.00
2013-5-21,66,55,43,49,43,33,100,69,30,0.00,40.00,19,8,27,0.00
2013-5-22,55,50,37,49,42,37,100,75,61,0.00,40.00,21,13,34,0.00
2013-5-23,41,36,32,41,36,32,100,100,100,0.00,40.00,17,3,23,0.00
2013-5-24,46,38,35,42,37,34,100,97,63,0.00,40.00,18,4,23,0.00
2013-5-25,59,47,36,44,39,36,100,76,47,0.00,40.00,21,11,29,0.00
2013-5-26,59,48,40,49,41,35,100,78,50,0.00,40.00,26,7,37,0.00
2013-5-27,61,48,40,48,44,40,100,87,48,0.00,40.00,20,11,24,0.00
2013-5-28,52,47,42,48,45,42,100,94,80,0.00,40.00,18,11,23,0.00
2013-5-29,63,49,44,49,45,41,100,86,47,0.00,40.00,19,9,26,0.00
2013-5-30,50,44,40,45,40,36,100,87,63,0.00,40.00,29,24,39,0.00
2013-5-31,49,43,39,44,39,36,100,86,73,0.00,40.00,29,18,38,0.00
2013-6-1,60,50,38,42,39,36,100,68,46,0.00,40.00,11,6,16,0.00
2013-6-2,56,49,41,49,43,37,100,82,54,0.00,40.00,21,9,27,0.00
2013-6-3,50,42,38,49,42,38,100,99,87,0.00,40.00,27,16,37,0.00
2013-6-4,51,43,37,42,39,36,100,87,64,0.00,40.00,9,6,14,0.00
2013-6-5,70,56,40,47,42,36,93,62,33,0.00,40.00,19,9,27,0.00
2013-6-6,76,62,51,51,46,41,72,56,34,0.00,40.00,12,6,17,0.00
2013-6-7,73,62,55,53,48,43,80,59,43,0.00,40.00,31,16,42,0.00
2013-6-8,71,59,49,50,40,29,100,54,25,0.00,40.00,29,18,37,0.00
2013-6-9,75,62,49,45,37,26,67,42,21,0.00,40.00,28,16,37,0.00
2013-6-10,74,61,45,45,36,27,58,40,29,0.00,40.00,21,7,29,0.00
2013-6-11,62,55,50,56,48,39,100,79,44,0.00,40.00,14,9,20,0.00
2013-6-12,67,56,50,61,55,50,100,98,79,0.00,40.00,12,7,17,0.00
2013-6-13,56,47,42,56,46,41,100,97,74,0.00,40.00,22,14,33,0.00
2013-6-14,55,46,40,42,38,34,100,76,47,0.00,40.00,29,21,40,0.00
2013-6-15,70,55,40,41,37,33,87,54,30,0.00,40.00,17,12,25,0.00
2013-6-16,69,62,51,49,43,32,72,50,41,0.00,40.00,12,8,19,0.00
2013-6-17,73,64,52,53,48,42,80,57,34,0.00,40.00,12,8,17,0.00
2013-6-18,75,67,58,56,51,43,81,56,32,0.00,40.00,12,8,19,0.00
2013-6-19,67,53,43,56,50,41,100,90,66,0.00,40.00,30,15,37,0.00
2013-6-20,55,44,41,44,42,40,100,93,59,0.00,40.00,25,18,32,0.00
2013-6-22,59,51,43,50,45,42,100,79,55,0.00,40.00,18,11,25,0.00
2013-6-23,69,57,44,49,44,40,92,64,44,0.00,40.00,17,10,21,0.00
2013-6-24,72,59,52,57,50,40,100,72,50,0.00,40.00,21,8,27,0.00
2013-6-25,69,56,50,55,51,44,100,84,44,0.00,40.00,32,15,40,0.00
2013-6-26,66,56,50,56,52,49,100,85,64,0.00,40.00,22,15,29,0.00
2013-6-27,78,64,50,58,52,49,99,70,40,0.00,40.00,16,10,23,0.00
2013-6-28,83,72,58,58,52,48,74,52,37,0.00,40.00,16,9,21,0.00
2013-6-29,81,72,63,62,58,53,77,61,40,0.00,40.00,15,7,21,0.00
2013-6-30,85,75,61,64,58,52,88,56,34,0.00,40.00,12,7,19,0.00
2013-7-1,86,78,65,63,60,55,82,56,35,0.00,40.00,11,8,17,0.00
2013-7-2,91,82,65,65,58,51,73,46,26,0.00,40.00,17,8,24,0.00
2013-7-3,86,75,67,59,54,46,71,50,32,0.00,40.00,27,14,35,0.00
2013-7-4,81,71,59,59,52,47,70,52,35,0.00,40.00,18,11,24,0.00
2013-7-5,81,65,54,55,47,41,80,53,31,0.00,40.00,23,9,31,0.00
2013-7-6,75,62,48,51,46,41,85,58,35,0.00,40.00,14,7,19,0.00
2013-7-7,83,69,54,59,50,43,91,57,25,0.00,40.00,15,7,22,0.00
2013-7-8,75,64,58,57,51,-100,92,65,38,0.00,40.00,22,10,31,0.00
2013-7-9,76,61,50,49,45,41,81,60,30,0.00,40.00,18,11,26,0.00